Pronóstico
Mapa Interactivo
Aviación
Investigación
Hidrometeorología
Agrometeorología
Estaciones Automáticas
Transparencia
OMM WMO
Portada
Institución
Noticias
Imágenes
Tsunami
Historial
Boletines y Alertas
Contactos
Buscar Contenidos
Informe del Tiempo

SADR31 MDSD 220400Z
METAR

METAR MDST 220400Z 13004KT 9999 SCT018 SCT070 26/25 Q1017 RERA=
METAR MDPC 220400Z 08010KT 9999 FEW018 27/24 Q1016=
METAR MDSD 220400Z 03004KT 9999 FEW018 25/24 Q1016=